sensor_id;sensor_type;location;lat;lon;timestamp;P1;durP1;ratioP1;P2;durP2;ratioP2
41512;SDS011;27244;59.940;30.280;2023-02-22T00:01:10;9.80;;;8.80;;
41512;SDS011;27244;59.940;30.280;2023-02-22T00:03:48;12.80;;;8.88;;
41512;SDS011;27244;59.940;30.280;2023-02-22T00:06:18;11.70;;;8.73;;
41512;SDS011;27244;59.940;30.280;2023-02-22T00:08:49;11.60;;;9.38;;
41512;SDS011;27244;59.940;30.280;2023-02-22T00:11:16;11.48;;;8.82;;
41512;SDS011;27244;59.940;30.280;2023-02-22T00:13:44;11.40;;;8.68;;
41512;SDS011;27244;59.940;30.280;2023-02-22T00:16:15;11.70;;;9.00;;
41512;SDS011;27244;59.940;30.280;2023-02-22T00:18:44;10.73;;;8.45;;
41512;SDS011;27244;59.940;30.280;2023-02-22T00:21:12;10.65;;;8.77;;
41512;SDS011;27244;59.940;30.280;2023-02-22T00:23:42;11.15;;;9.27;;
41512;SDS011;27244;59.940;30.280;2023-02-22T00:26:12;11.40;;;8.45;;
41512;SDS011;27244;59.940;30.280;2023-02-22T00:28:44;11.00;;;8.43;;
41512;SDS011;27244;59.940;30.280;2023-02-22T00:31:12;12.70;;;9.48;;
41512;SDS011;27244;59.940;30.280;2023-02-22T00:33:39;11.05;;;8.85;;
41512;SDS011;27244;59.940;30.280;2023-02-22T00:36:07;10.43;;;9.13;;
41512;SDS011;27244;59.940;30.280;2023-02-22T00:38:35;12.25;;;9.27;;
41512;SDS011;27244;59.940;30.280;2023-02-22T00:41:05;13.10;;;9.27;;
41512;SDS011;27244;59.940;30.280;2023-02-22T00:43:32;11.63;;;9.27;;
41512;SDS011;27244;59.940;30.280;2023-02-22T00:46:00;10.93;;;9.23;;
41512;SDS011;27244;59.940;30.280;2023-02-22T00:48:27;10.65;;;8.85;;
41512;SDS011;27244;59.940;30.280;2023-02-22T00:50:54;11.77;;;9.13;;
41512;SDS011;27244;59.940;30.280;2023-02-22T00:53:22;11.10;;;9.18;;
41512;SDS011;27244;59.940;30.280;2023-02-22T00:55:49;12.00;;;9.50;;
41512;SDS011;27244;59.940;30.280;2023-02-22T00:58:18;11.90;;;9.32;;
41512;SDS011;27244;59.940;30.280;2023-02-22T01:00:45;10.60;;;8.60;;
41512;SDS011;27244;59.940;30.280;2023-02-22T01:03:13;10.73;;;8.77;;
41512;SDS011;27244;59.940;30.280;2023-02-22T01:05:42;10.85;;;8.88;;
41512;SDS011;27244;59.940;30.280;2023-02-22T01:08:10;12.13;;;8.77;;
41512;SDS011;27244;59.940;30.280;2023-02-22T01:10:38;12.10;;;9.13;;
41512;SDS011;27244;59.940;30.280;2023-02-22T01:13:06;12.30;;;9.13;;
41512;SDS011;27244;59.940;30.280;2023-02-22T01:15:38;11.80;;;9.00;;
41512;SDS011;27244;59.940;30.280;2023-02-22T01:18:06;11.73;;;9.45;;
41512;SDS011;27244;59.940;30.280;2023-02-22T01:20:34;10.93;;;8.63;;
41512;SDS011;27244;59.940;30.280;2023-02-22T01:23:02;11.15;;;9.13;;
41512;SDS011;27244;59.940;30.280;2023-02-22T01:25:32;11.02;;;8.52;;
41512;SDS011;27244;59.940;30.280;2023-02-22T01:28:00;11.27;;;8.73;;
41512;SDS011;27244;59.940;30.280;2023-02-22T01:30:28;10.93;;;9.35;;
41512;SDS011;27244;59.940;30.280;2023-02-22T01:32:59;11.25;;;9.10;;
41512;SDS011;27244;59.940;30.280;2023-02-22T01:35:28;10.43;;;9.00;;
41512;SDS011;27244;59.940;30.280;2023-02-22T01:37:56;9.82;;;8.50;;
41512;SDS011;27244;59.940;30.280;2023-02-22T01:40:25;9.70;;;8.52;;
41512;SDS011;27244;59.940;30.280;2023-02-22T01:42:55;11.07;;;9.55;;
41512;SDS011;27244;59.940;30.280;2023-02-22T01:48:13;10.65;;;8.70;;
41512;SDS011;27244;59.940;30.280;2023-02-22T01:50:45;11.63;;;9.20;;
41512;SDS011;27244;59.940;30.280;2023-02-22T01:53:18;12.10;;;8.57;;
41512;SDS011;27244;59.940;30.280;2023-02-22T01:55:48;10.13;;;8.85;;
41512;SDS011;27244;59.940;30.280;2023-02-22T01:58:19;9.77;;;8.77;;
41512;SDS011;27244;59.940;30.280;2023-02-22T02:00:47;11.23;;;8.25;;
41512;SDS011;27244;59.940;30.280;2023-02-22T02:03:16;10.38;;;8.48;;
41512;SDS011;27244;59.940;30.280;2023-02-22T02:05:49;10.00;;;8.63;;
41512;SDS011;27244;59.940;30.280;2023-02-22T02:08:23;13.15;;;9.65;;
41512;SDS011;27244;59.940;30.280;2023-02-22T02:10:56;10.48;;;8.70;;
41512;SDS011;27244;59.940;30.280;2023-02-22T02:13:25;10.98;;;8.70;;
41512;SDS011;27244;59.940;30.280;2023-02-22T02:15:54;10.52;;;9.32;;
41512;SDS011;27244;59.940;30.280;2023-02-22T02:18:23;11.07;;;9.35;;
41512;SDS011;27244;59.940;30.280;2023-02-22T02:20:59;12.63;;;8.75;;
41512;SDS011;27244;59.940;30.280;2023-02-22T02:24:09;10.40;;;9.32;;
41512;SDS011;27244;59.940;30.280;2023-02-22T02:26:58;11.73;;;8.55;;
41512;SDS011;27244;59.940;30.280;2023-02-22T02:32:52;13.18;;;9.35;;
41512;SDS011;27244;59.940;30.280;2023-02-22T02:35:25;11.65;;;8.63;;
41512;SDS011;27244;59.940;30.280;2023-02-22T02:38:01;15.95;;;9.02;;
41512;SDS011;27244;59.940;30.280;2023-02-22T02:40:36;11.90;;;8.55;;
41512;SDS011;27244;59.940;30.280;2023-02-22T02:43:11;12.40;;;9.00;;
41512;SDS011;27244;59.940;30.280;2023-02-22T02:45:45;9.90;;;8.35;;
41512;SDS011;27244;59.940;30.280;2023-02-22T02:48:19;10.23;;;8.18;;
41512;SDS011;27244;59.940;30.280;2023-02-22T02:50:50;10.88;;;8.43;;
41512;SDS011;27244;59.940;30.280;2023-02-22T02:53:20;12.30;;;9.00;;
41512;SDS011;27244;59.940;30.280;2023-02-22T02:55:50;9.57;;;8.13;;
41512;SDS011;27244;59.940;30.280;2023-02-22T02:58:18;12.98;;;9.10;;
41512;SDS011;27244;59.940;30.280;2023-02-22T03:00:46;13.48;;;8.93;;
41512;SDS011;27244;59.940;30.280;2023-02-22T03:06:24;12.15;;;8.60;;
41512;SDS011;27244;59.940;30.280;2023-02-22T03:09:07;10.77;;;8.65;;
41512;SDS011;27244;59.940;30.280;2023-02-22T03:11:41;10.70;;;8.70;;
41512;SDS011;27244;59.940;30.280;2023-02-22T03:14:21;11.30;;;8.50;;
41512;SDS011;27244;59.940;30.280;2023-02-22T03:16:55;10.82;;;8.27;;
41512;SDS011;27244;59.940;30.280;2023-02-22T03:19:34;11.57;;;8.35;;
41512;SDS011;27244;59.940;30.280;2023-02-22T03:22:08;11.80;;;8.55;;
41512;SDS011;27244;59.940;30.280;2023-02-22T03:24:38;9.57;;;8.40;;
41512;SDS011;27244;59.940;30.280;2023-02-22T03:27:19;10.93;;;8.43;;
41512;SDS011;27244;59.940;30.280;2023-02-22T03:29:54;10.55;;;8.48;;
41512;SDS011;27244;59.940;30.280;2023-02-22T03:32:28;10.93;;;8.95;;
41512;SDS011;27244;59.940;30.280;2023-02-22T03:35:01;10.07;;;8.40;;
41512;SDS011;27244;59.940;30.280;2023-02-22T03:37:35;11.63;;;8.40;;
41512;SDS011;27244;59.940;30.280;2023-02-22T03:40:07;12.40;;;9.43;;
41512;SDS011;27244;59.940;30.280;2023-02-22T03:42:44;10.15;;;8.30;;
41512;SDS011;27244;59.940;30.280;2023-02-22T03:45:15;10.35;;;8.77;;
41512;SDS011;27244;59.940;30.280;2023-02-22T03:47:46;10.90;;;8.73;;
41512;SDS011;27244;59.940;30.280;2023-02-22T03:50:19;10.57;;;8.80;;
41512;SDS011;27244;59.940;30.280;2023-02-22T03:52:50;11.85;;;8.93;;
41512;SDS011;27244;59.940;30.280;2023-02-22T03:55:25;11.25;;;8.85;;
41512;SDS011;27244;59.940;30.280;2023-02-22T03:57:54;11.38;;;9.00;;
41512;SDS011;27244;59.940;30.280;2023-02-22T04:00:30;11.10;;;9.23;;
41512;SDS011;27244;59.940;30.280;2023-02-22T04:02:59;11.95;;;9.20;;
41512;SDS011;27244;59.940;30.280;2023-02-22T04:05:28;11.63;;;9.52;;
41512;SDS011;27244;59.940;30.280;2023-02-22T04:07:56;10.75;;;9.05;;
41512;SDS011;27244;59.940;30.280;2023-02-22T04:10:24;12.32;;;9.10;;
41512;SDS011;27244;59.940;30.280;2023-02-22T04:12:52;12.23;;;8.88;;
41512;SDS011;27244;59.940;30.280;2023-02-22T04:15:19;10.82;;;8.82;;
41512;SDS011;27244;59.940;30.280;2023-02-22T04:17:49;10.48;;;8.65;;
41512;SDS011;27244;59.940;30.280;2023-02-22T04:20:17;11.98;;;9.55;;
41512;SDS011;27244;59.940;30.280;2023-02-22T04:22:55;10.88;;;8.10;;
41512;SDS011;27244;59.940;30.280;2023-02-22T04:25:22;9.40;;;8.38;;
41512;SDS011;27244;59.940;30.280;2023-02-22T04:27:50;11.52;;;8.82;;
41512;SDS011;27244;59.940;30.280;2023-02-22T04:30:24;10.48;;;8.95;;
41512;SDS011;27244;59.940;30.280;2023-02-22T04:32:52;11.07;;;9.20;;
41512;SDS011;27244;59.940;30.280;2023-02-22T04:35:21;12.00;;;8.77;;
41512;SDS011;27244;59.940;30.280;2023-02-22T04:37:48;10.25;;;9.02;;
41512;SDS011;27244;59.940;30.280;2023-02-22T04:40:19;14.77;;;9.40;;
41512;SDS011;27244;59.940;30.280;2023-02-22T04:42:47;12.15;;;9.30;;
41512;SDS011;27244;59.940;30.280;2023-02-22T04:45:14;11.32;;;9.23;;
41512;SDS011;27244;59.940;30.280;2023-02-22T04:47:41;10.60;;;9.00;;
41512;SDS011;27244;59.940;30.280;2023-02-22T04:50:09;10.73;;;8.57;;
41512;SDS011;27244;59.940;30.280;2023-02-22T04:52:38;10.95;;;9.20;;
41512;SDS011;27244;59.940;30.280;2023-02-22T04:55:05;11.85;;;9.13;;
41512;SDS011;27244;59.940;30.280;2023-02-22T04:57:35;11.65;;;9.38;;
41512;SDS011;27244;59.940;30.280;2023-02-22T05:00:03;10.80;;;9.18;;
41512;SDS011;27244;59.940;30.280;2023-02-22T05:02:31;11.73;;;8.98;;
41512;SDS011;27244;59.940;30.280;2023-02-22T05:04:58;12.40;;;9.48;;
41512;SDS011;27244;59.940;30.280;2023-02-22T05:07:25;12.18;;;10.18;;
41512;SDS011;27244;59.940;30.280;2023-02-22T05:09:52;13.52;;;9.65;;
41512;SDS011;27244;59.940;30.280;2023-02-22T05:12:19;13.32;;;9.85;;
41512;SDS011;27244;59.940;30.280;2023-02-22T05:14:50;12.65;;;9.73;;
41512;SDS011;27244;59.940;30.280;2023-02-22T05:17:17;15.50;;;10.48;;
41512;SDS011;27244;59.940;30.280;2023-02-22T05:19:44;12.90;;;10.07;;
41512;SDS011;27244;59.940;30.280;2023-02-22T05:22:11;12.77;;;9.73;;
41512;SDS011;27244;59.940;30.280;2023-02-22T05:24:38;12.57;;;9.57;;
41512;SDS011;27244;59.940;30.280;2023-02-22T05:27:05;13.13;;;10.00;;
41512;SDS011;27244;59.940;30.280;2023-02-22T05:29:32;13.40;;;10.13;;
41512;SDS011;27244;59.940;30.280;2023-02-22T05:32:01;14.13;;;10.02;;
41512;SDS011;27244;59.940;30.280;2023-02-22T05:34:28;13.13;;;10.75;;
41512;SDS011;27244;59.940;30.280;2023-02-22T05:36:55;12.93;;;9.93;;
41512;SDS011;27244;59.940;30.280;2023-02-22T05:39:22;15.55;;;9.98;;
41512;SDS011;27244;59.940;30.280;2023-02-22T05:41:49;11.93;;;9.52;;
41512;SDS011;27244;59.940;30.280;2023-02-22T05:44:15;16.52;;;9.98;;
41512;SDS011;27244;59.940;30.280;2023-02-22T05:46:42;13.18;;;10.27;;
41512;SDS011;27244;59.940;30.280;2023-02-22T05:49:11;18.42;;;9.82;;
41512;SDS011;27244;59.940;30.280;2023-02-22T05:51:38;12.40;;;9.45;;
41512;SDS011;27244;59.940;30.280;2023-02-22T05:54:05;14.30;;;9.60;;
41512;SDS011;27244;59.940;30.280;2023-02-22T05:56:32;12.82;;;9.05;;
41512;SDS011;27244;59.940;30.280;2023-02-22T05:59:00;12.35;;;8.40;;
41512;SDS011;27244;59.940;30.280;2023-02-22T06:01:27;12.07;;;8.20;;
41512;SDS011;27244;59.940;30.280;2023-02-22T06:03:54;12.20;;;8.23;;
41512;SDS011;27244;59.940;30.280;2023-02-22T06:06:23;10.88;;;8.20;;
41512;SDS011;27244;59.940;30.280;2023-02-22T06:08:49;17.58;;;8.43;;
41512;SDS011;27244;59.940;30.280;2023-02-22T06:11:16;12.90;;;8.10;;
41512;SDS011;27244;59.940;30.280;2023-02-22T06:13:48;16.42;;;8.13;;
41512;SDS011;27244;59.940;30.280;2023-02-22T06:16:15;13.85;;;8.02;;
41512;SDS011;27244;59.940;30.280;2023-02-22T06:18:42;9.90;;;7.60;;
41512;SDS011;27244;59.940;30.280;2023-02-22T06:21:10;10.38;;;8.10;;
41512;SDS011;27244;59.940;30.280;2023-02-22T06:23:38;13.63;;;7.88;;
41512;SDS011;27244;59.940;30.280;2023-02-22T06:26:05;9.48;;;7.13;;
41512;SDS011;27244;59.940;30.280;2023-02-22T06:28:32;9.93;;;7.22;;
41512;SDS011;27244;59.940;30.280;2023-02-22T06:31:01;11.88;;;7.40;;
41512;SDS011;27244;59.940;30.280;2023-02-22T06:33:28;10.18;;;7.28;;
41512;SDS011;27244;59.940;30.280;2023-02-22T06:35:55;9.13;;;6.60;;
41512;SDS011;27244;59.940;30.280;2023-02-22T06:38:22;9.20;;;6.65;;
41512;SDS011;27244;59.940;30.280;2023-02-22T06:40:53;7.90;;;6.57;;
41512;SDS011;27244;59.940;30.280;2023-02-22T06:43:20;8.35;;;6.47;;
41512;SDS011;27244;59.940;30.280;2023-02-22T06:45:48;12.82;;;6.28;;
41512;SDS011;27244;59.940;30.280;2023-02-22T06:48:15;12.98;;;6.40;;
41512;SDS011;27244;59.940;30.280;2023-02-22T06:50:45;7.32;;;6.22;;
41512;SDS011;27244;59.940;30.280;2023-02-22T06:53:15;7.93;;;5.85;;
41512;SDS011;27244;59.940;30.280;2023-02-22T06:55:42;8.60;;;6.18;;
41512;SDS011;27244;59.940;30.280;2023-02-22T06:58:10;7.80;;;6.22;;
41512;SDS011;27244;59.940;30.280;2023-02-22T07:00:37;8.65;;;5.95;;
41512;SDS011;27244;59.940;30.280;2023-02-22T07:03:04;7.97;;;5.70;;
41512;SDS011;27244;59.940;30.280;2023-02-22T07:05:31;6.93;;;5.97;;
41512;SDS011;27244;59.940;30.280;2023-02-22T07:08:02;7.32;;;5.63;;
41512;SDS011;27244;59.940;30.280;2023-02-22T07:10:31;6.70;;;5.80;;
41512;SDS011;27244;59.940;30.280;2023-02-22T07:12:59;6.95;;;5.55;;
41512;SDS011;27244;59.940;30.280;2023-02-22T07:15:31;7.50;;;6.20;;
41512;SDS011;27244;59.940;30.280;2023-02-22T07:17:59;9.05;;;5.63;;
41512;SDS011;27244;59.940;30.280;2023-02-22T07:20:28;10.50;;;5.38;;
41512;SDS011;27244;59.940;30.280;2023-02-22T07:22:56;6.72;;;5.20;;
41512;SDS011;27244;59.940;30.280;2023-02-22T07:25:24;7.75;;;5.50;;
41512;SDS011;27244;59.940;30.280;2023-02-22T07:27:52;7.07;;;5.43;;
41512;SDS011;27244;59.940;30.280;2023-02-22T07:30:22;7.25;;;5.40;;
41512;SDS011;27244;59.940;30.280;2023-02-22T07:32:53;6.30;;;5.05;;
41512;SDS011;27244;59.940;30.280;2023-02-22T07:35:21;8.35;;;5.93;;
41512;SDS011;27244;59.940;30.280;2023-02-22T07:38:08;7.82;;;5.03;;
41512;SDS011;27244;59.940;30.280;2023-02-22T07:40:42;7.25;;;5.30;;
41512;SDS011;27244;59.940;30.280;2023-02-22T07:43:13;9.80;;;5.10;;
41512;SDS011;27244;59.940;30.280;2023-02-22T07:45:42;6.10;;;5.20;;
41512;SDS011;27244;59.940;30.280;2023-02-22T07:48:11;6.18;;;4.80;;
41512;SDS011;27244;59.940;30.280;2023-02-22T07:50:38;7.90;;;5.28;;
41512;SDS011;27244;59.940;30.280;2023-02-22T07:53:06;6.38;;;5.30;;
41512;SDS011;27244;59.940;30.280;2023-02-22T07:55:36;7.05;;;4.88;;
41512;SDS011;27244;59.940;30.280;2023-02-22T07:58:04;5.38;;;4.88;;
41512;SDS011;27244;59.940;30.280;2023-02-22T08:00:34;5.50;;;5.00;;
41512;SDS011;27244;59.940;30.280;2023-02-22T08:03:04;5.07;;;4.57;;
41512;SDS011;27244;59.940;30.280;2023-02-22T08:05:34;6.22;;;4.35;;
41512;SDS011;27244;59.940;30.280;2023-02-22T08:08:02;7.63;;;5.07;;
41512;SDS011;27244;59.940;30.280;2023-02-22T08:10:30;5.63;;;4.75;;
41512;SDS011;27244;59.940;30.280;2023-02-22T08:12:57;5.32;;;4.57;;
41512;SDS011;27244;59.940;30.280;2023-02-22T08:15:28;8.35;;;5.00;;
41512;SDS011;27244;59.940;30.280;2023-02-22T08:17:57;5.82;;;4.53;;
41512;SDS011;27244;59.940;30.280;2023-02-22T08:20:25;6.72;;;4.35;;
41512;SDS011;27244;59.940;30.280;2023-02-22T08:22:55;5.38;;;4.50;;
41512;SDS011;27244;59.940;30.280;2023-02-22T08:25:23;6.22;;;4.70;;
41512;SDS011;27244;59.940;30.280;2023-02-22T08:27:54;5.10;;;4.50;;
41512;SDS011;27244;59.940;30.280;2023-02-22T08:30:25;6.57;;;4.53;;
41512;SDS011;27244;59.940;30.280;2023-02-22T08:32:53;5.32;;;4.63;;
41512;SDS011;27244;59.940;30.280;2023-02-22T08:35:21;7.15;;;4.22;;
41512;SDS011;27244;59.940;30.280;2023-02-22T08:37:48;5.40;;;4.90;;
41512;SDS011;27244;59.940;30.280;2023-02-22T08:40:19;5.60;;;5.00;;
41512;SDS011;27244;59.940;30.280;2023-02-22T08:42:47;7.38;;;5.32;;
41512;SDS011;27244;59.940;30.280;2023-02-22T08:45:14;7.13;;;5.78;;
41512;SDS011;27244;59.940;30.280;2023-02-22T08:47:42;5.88;;;5.28;;
41512;SDS011;27244;59.940;30.280;2023-02-22T08:50:13;6.30;;;5.22;;
41512;SDS011;27244;59.940;30.280;2023-02-22T08:52:44;8.48;;;5.82;;
41512;SDS011;27244;59.940;30.280;2023-02-22T08:55:11;5.57;;;5.00;;
41512;SDS011;27244;59.940;30.280;2023-02-22T08:57:40;8.27;;;5.80;;
41512;SDS011;27244;59.940;30.280;2023-02-22T09:00:08;6.72;;;5.38;;
41512;SDS011;27244;59.940;30.280;2023-02-22T09:02:35;6.35;;;5.75;;
41512;SDS011;27244;59.940;30.280;2023-02-22T09:05:02;5.82;;;5.22;;
41512;SDS011;27244;59.940;30.280;2023-02-22T09:07:31;6.55;;;5.88;;
41512;SDS011;27244;59.940;30.280;2023-02-22T09:09:58;7.28;;;5.20;;
41512;SDS011;27244;59.940;30.280;2023-02-22T09:12:25;8.13;;;5.57;;
41512;SDS011;27244;59.940;30.280;2023-02-22T09:14:53;7.18;;;5.82;;
41512;SDS011;27244;59.940;30.280;2023-02-22T09:17:20;8.98;;;6.38;;
41512;SDS011;27244;59.940;30.280;2023-02-22T09:19:47;9.52;;;6.57;;
41512;SDS011;27244;59.940;30.280;2023-02-22T09:22:14;8.05;;;6.20;;
41512;SDS011;27244;59.940;30.280;2023-02-22T09:24:41;9.05;;;6.53;;
41512;SDS011;27244;59.940;30.280;2023-02-22T09:27:08;11.68;;;8.15;;
41512;SDS011;27244;59.940;30.280;2023-02-22T09:29:36;10.70;;;7.22;;
41512;SDS011;27244;59.940;30.280;2023-02-22T09:32:05;11.55;;;7.95;;
41512;SDS011;27244;59.940;30.280;2023-02-22T09:34:32;12.57;;;7.90;;
41512;SDS011;27244;59.940;30.280;2023-02-22T09:37:00;12.55;;;9.30;;
41512;SDS011;27244;59.940;30.280;2023-02-22T09:39:29;17.30;;;9.35;;
41512;SDS011;27244;59.940;30.280;2023-02-22T09:42:02;16.27;;;9.70;;
41512;SDS011;27244;59.940;30.280;2023-02-22T09:44:39;24.45;;;13.50;;
41512;SDS011;27244;59.940;30.280;2023-02-22T09:47:15;15.02;;;9.95;;
41512;SDS011;27244;59.940;30.280;2023-02-22T09:49:47;15.10;;;10.25;;
41512;SDS011;27244;59.940;30.280;2023-02-22T09:52:26;17.05;;;10.65;;
41512;SDS011;27244;59.940;30.280;2023-02-22T09:55:00;18.08;;;11.38;;
41512;SDS011;27244;59.940;30.280;2023-02-22T10:00:11;18.65;;;12.18;;
41512;SDS011;27244;59.940;30.280;2023-02-22T10:02:45;19.77;;;12.65;;
41512;SDS011;27244;59.940;30.280;2023-02-22T10:05:19;20.63;;;14.02;;
41512;SDS011;27244;59.940;30.280;2023-02-22T10:07:51;20.33;;;13.77;;
41512;SDS011;27244;59.940;30.280;2023-02-22T10:10:22;21.02;;;14.60;;
41512;SDS011;27244;59.940;30.280;2023-02-22T10:12:59;22.15;;;14.75;;
41512;SDS011;27244;59.940;30.280;2023-02-22T10:15:35;20.33;;;15.00;;
41512;SDS011;27244;59.940;30.280;2023-02-22T10:18:35;22.30;;;15.55;;
41512;SDS011;27244;59.940;30.280;2023-02-22T10:21:28;19.67;;;15.02;;
41512;SDS011;27244;59.940;30.280;2023-02-22T10:24:09;23.17;;;15.35;;
41512;SDS011;27244;59.940;30.280;2023-02-22T10:26:43;22.50;;;15.38;;
41512;SDS011;27244;59.940;30.280;2023-02-22T10:29:13;24.67;;;15.73;;
41512;SDS011;27244;59.940;30.280;2023-02-22T10:31:47;24.63;;;16.67;;
41512;SDS011;27244;59.940;30.280;2023-02-22T10:34:21;22.63;;;15.38;;
41512;SDS011;27244;59.940;30.280;2023-02-22T10:36:53;22.08;;;15.82;;
41512;SDS011;27244;59.940;30.280;2023-02-22T10:39:26;20.30;;;14.65;;
41512;SDS011;27244;59.940;30.280;2023-02-22T10:41:56;20.98;;;15.05;;
41512;SDS011;27244;59.940;30.280;2023-02-22T10:44:31;21.13;;;14.48;;
41512;SDS011;27244;59.940;30.280;2023-02-22T10:46:58;22.08;;;13.70;;
41512;SDS011;27244;59.940;30.280;2023-02-22T10:49:29;19.95;;;13.48;;
41512;SDS011;27244;59.940;30.280;2023-02-22T10:52:03;19.50;;;13.68;;
41512;SDS011;27244;59.940;30.280;2023-02-22T10:54:40;20.80;;;13.32;;
41512;SDS011;27244;59.940;30.280;2023-02-22T10:57:11;19.40;;;14.07;;
41512;SDS011;27244;59.940;30.280;2023-02-22T10:59:39;19.13;;;13.85;;
41512;SDS011;27244;59.940;30.280;2023-02-22T11:02:12;21.65;;;16.33;;
41512;SDS011;27244;59.940;30.280;2023-02-22T11:04:46;22.05;;;16.00;;
41512;SDS011;27244;59.940;30.280;2023-02-22T11:09:50;22.30;;;16.23;;
41512;SDS011;27244;59.940;30.280;2023-02-22T11:12:19;22.92;;;16.90;;
41512;SDS011;27244;59.940;30.280;2023-02-22T11:14:51;22.80;;;16.38;;
41512;SDS011;27244;59.940;30.280;2023-02-22T11:17:21;22.85;;;16.13;;
41512;SDS011;27244;59.940;30.280;2023-02-22T11:19:56;23.27;;;16.05;;
41512;SDS011;27244;59.940;30.280;2023-02-22T11:22:25;22.05;;;16.33;;
41512;SDS011;27244;59.940;30.280;2023-02-22T11:24:57;22.08;;;16.65;;
41512;SDS011;27244;59.940;30.280;2023-02-22T11:27:29;21.95;;;17.08;;
41512;SDS011;27244;59.940;30.280;2023-02-22T11:30:24;22.75;;;16.65;;
41512;SDS011;27244;59.940;30.280;2023-02-22T11:32:54;22.50;;;16.65;;
41512;SDS011;27244;59.940;30.280;2023-02-22T11:35:33;21.20;;;16.58;;
41512;SDS011;27244;59.940;30.280;2023-02-22T11:40:46;22.38;;;17.77;;
41512;SDS011;27244;59.940;30.280;2023-02-22T11:43:32;24.98;;;17.73;;
41512;SDS011;27244;59.940;30.280;2023-02-22T11:46:01;25.83;;;19.00;;
41512;SDS011;27244;59.940;30.280;2023-02-22T11:48:31;25.73;;;19.55;;
41512;SDS011;27244;59.940;30.280;2023-02-22T11:57:01;23.45;;;18.23;;
41512;SDS011;27244;59.940;30.280;2023-02-22T11:59:43;24.38;;;18.50;;
41512;SDS011;27244;59.940;30.280;2023-02-22T12:02:28;25.33;;;19.23;;
41512;SDS011;27244;59.940;30.280;2023-02-22T12:05:14;23.98;;;19.27;;
41512;SDS011;27244;59.940;30.280;2023-02-22T12:07:54;25.85;;;19.05;;
41512;SDS011;27244;59.940;30.280;2023-02-22T12:10:34;25.20;;;19.73;;
41512;SDS011;27244;59.940;30.280;2023-02-22T12:13:20;23.42;;;18.98;;
41512;SDS011;27244;59.940;30.280;2023-02-22T12:16:02;21.55;;;17.95;;
41512;SDS011;27244;59.940;30.280;2023-02-22T12:18:38;21.98;;;18.02;;
41512;SDS011;27244;59.940;30.280;2023-02-22T12:21:15;22.13;;;17.65;;
41512;SDS011;27244;59.940;30.280;2023-02-22T12:23:48;20.88;;;17.25;;
41512;SDS011;27244;59.940;30.280;2023-02-22T12:26:21;21.70;;;17.45;;
41512;SDS011;27244;59.940;30.280;2023-02-22T12:28:53;23.10;;;17.70;;
41512;SDS011;27244;59.940;30.280;2023-02-22T12:31:25;21.25;;;16.60;;
41512;SDS011;27244;59.940;30.280;2023-02-22T12:33:59;19.80;;;15.88;;
41512;SDS011;27244;59.940;30.280;2023-02-22T12:36:34;19.92;;;15.85;;
41512;SDS011;27244;59.940;30.280;2023-02-22T12:39:18;21.10;;;16.33;;
41512;SDS011;27244;59.940;30.280;2023-02-22T12:41:53;19.63;;;15.93;;
41512;SDS011;27244;59.940;30.280;2023-02-22T12:44:23;19.85;;;15.13;;
41512;SDS011;27244;59.940;30.280;2023-02-22T12:46:54;20.17;;;15.35;;
41512;SDS011;27244;59.940;30.280;2023-02-22T12:49:25;20.33;;;15.50;;
41512;SDS011;27244;59.940;30.280;2023-02-22T12:51:57;18.67;;;15.20;;
41512;SDS011;27244;59.940;30.280;2023-02-22T12:54:33;19.98;;;14.38;;
41512;SDS011;27244;59.940;30.280;2023-02-22T12:57:07;18.67;;;14.90;;
41512;SDS011;27244;59.940;30.280;2023-02-22T12:59:43;17.55;;;14.05;;
41512;SDS011;27244;59.940;30.280;2023-02-22T13:02:16;16.63;;;13.38;;
41512;SDS011;27244;59.940;30.280;2023-02-22T13:04:47;16.13;;;13.52;;
41512;SDS011;27244;59.940;30.280;2023-02-22T13:07:20;15.90;;;13.15;;
41512;SDS011;27244;59.940;30.280;2023-02-22T13:12:58;16.45;;;12.82;;
41512;SDS011;27244;59.940;30.280;2023-02-22T13:15:35;15.85;;;12.98;;
41512;SDS011;27244;59.940;30.280;2023-02-22T13:18:09;15.15;;;12.25;;
41512;SDS011;27244;59.940;30.280;2023-02-22T13:20:44;14.57;;;12.43;;
41512;SDS011;27244;59.940;30.280;2023-02-22T13:23:18;14.07;;;11.82;;
41512;SDS011;27244;59.940;30.280;2023-02-22T13:26:02;13.85;;;12.30;;
41512;SDS011;27244;59.940;30.280;2023-02-22T13:28:38;13.68;;;11.98;;
41512;SDS011;27244;59.940;30.280;2023-02-22T13:31:21;14.02;;;11.65;;
41512;SDS011;27244;59.940;30.280;2023-02-22T13:34:05;13.02;;;11.18;;
41512;SDS011;27244;59.940;30.280;2023-02-22T13:36:52;12.25;;;10.90;;
41512;SDS011;27244;59.940;30.280;2023-02-22T13:42:31;12.32;;;10.80;;
41512;SDS011;27244;59.940;30.280;2023-02-22T13:48:41;12.40;;;11.07;;
41512;SDS011;27244;59.940;30.280;2023-02-22T13:51:29;11.55;;;10.02;;
41512;SDS011;27244;59.940;30.280;2023-02-22T13:54:06;13.38;;;10.27;;
41512;SDS011;27244;59.940;30.280;2023-02-22T13:56:40;13.55;;;10.55;;
41512;SDS011;27244;59.940;30.280;2023-02-22T13:59:19;12.15;;;10.55;;
41512;SDS011;27244;59.940;30.280;2023-02-22T14:01:49;10.85;;;8.80;;
41512;SDS011;27244;59.940;30.280;2023-02-22T14:04:32;10.57;;;9.48;;
41512;SDS011;27244;59.940;30.280;2023-02-22T14:07:03;11.10;;;9.90;;
41512;SDS011;27244;59.940;30.280;2023-02-22T14:09:46;11.48;;;9.75;;
41512;SDS011;27244;59.940;30.280;2023-02-22T14:15:15;10.50;;;8.48;;
41512;SDS011;27244;59.940;30.280;2023-02-22T14:17:46;10.02;;;8.65;;
41512;SDS011;27244;59.940;30.280;2023-02-22T14:20:25;9.77;;;8.40;;
41512;SDS011;27244;59.940;30.280;2023-02-22T14:25:54;10.75;;;8.98;;
41512;SDS011;27244;59.940;30.280;2023-02-22T14:28:35;10.63;;;8.52;;
41512;SDS011;27244;59.940;30.280;2023-02-22T14:31:10;9.88;;;8.88;;
41512;SDS011;27244;59.940;30.280;2023-02-22T14:33:49;9.20;;;8.00;;
41512;SDS011;27244;59.940;30.280;2023-02-22T14:36:30;10.98;;;8.82;;
41512;SDS011;27244;59.940;30.280;2023-02-22T14:39:04;9.82;;;7.50;;
41512;SDS011;27244;59.940;30.280;2023-02-22T14:41:39;9.68;;;7.88;;
41512;SDS011;27244;59.940;30.280;2023-02-22T14:44:10;9.48;;;7.60;;
41512;SDS011;27244;59.940;30.280;2023-02-22T14:46:40;8.90;;;7.40;;
41512;SDS011;27244;59.940;30.280;2023-02-22T14:49:14;9.00;;;7.72;;
41512;SDS011;27244;59.940;30.280;2023-02-22T14:51:48;8.20;;;7.30;;
41512;SDS011;27244;59.940;30.280;2023-02-22T14:54:22;9.52;;;7.82;;
41512;SDS011;27244;59.940;30.280;2023-02-22T14:56:54;7.32;;;6.38;;
41512;SDS011;27244;59.940;30.280;2023-02-22T14:59:43;7.07;;;6.38;;
41512;SDS011;27244;59.940;30.280;2023-02-22T15:02:20;9.05;;;7.13;;
41512;SDS011;27244;59.940;30.280;2023-02-22T15:04:50;7.57;;;6.25;;
41512;SDS011;27244;59.940;30.280;2023-02-22T15:07:22;8.48;;;6.82;;
41512;SDS011;27244;59.940;30.280;2023-02-22T15:10:20;8.50;;;6.57;;
41512;SDS011;27244;59.940;30.280;2023-02-22T15:12:56;9.65;;;7.18;;
41512;SDS011;27244;59.940;30.280;2023-02-22T15:15:34;8.13;;;7.00;;
41512;SDS011;27244;59.940;30.280;2023-02-22T15:18:13;7.18;;;6.45;;
41512;SDS011;27244;59.940;30.280;2023-02-22T15:20:46;6.53;;;5.88;;
41512;SDS011;27244;59.940;30.280;2023-02-22T15:23:20;6.45;;;5.78;;
41512;SDS011;27244;59.940;30.280;2023-02-22T15:25:48;8.73;;;6.47;;